Aérodrome :
LOGIN :

S'inscrire | Disclaimer

   EN    FR    IT 

 










Légende :    VFR   VFR Marginal   IFR   IFR Intensif   IFR Très Intensif
Visi : 
Plafond : 
>= 8 km
>= 3000ft
5 à 8 km
1000 à 3000 ft
1500m à 5 km
500 à 1000 ft
800 à 1500m
200 à 500 ft
< 800m
< 200 ft
Symboles :   Orages  Brouillard  Fortes neiges  Fortes précipitations  Vent > 20 kt
SIGMETs :   Divers  Orages  Givrage  Turbulence  Onde Orograph.  Cendres Volcan.







- Altitude de l'aérodrome : 405 ft
- Code IATA : ODH


EGVO - RAF Odiham

DERNIER METAR :
  • 261150Z 21011KT 9999 BKN010 BKN050 19/17 Q1007 GRN NOSIG

METARs EXPIRÉS :
  • 261107Z 20007KT 9999 -RA FEW007 OVC050 18/17 Q1007 BLU BECMG 7000 -RA BKN010 GRN
  • 261050Z 21009KT 9999 -RA FEW007 SCT014 OVC032 18/17 Q1007 GRN TEMPO BKN032 BLU
  • 261043Z 22010KT 7000 -RA SCT007 OVC014 18/17 Q1007 GRN TEMPO BKN015 WHT
  • 261029Z 22009KT 9999 -RA SCT007 OVC014 18/17 Q1007 GRN TEMPO BKN015 WHT
  • 260950Z 20010KT 4500 -RA FEW006 BKN007 OVC014 18/17 Q1007 GRN TEMPO SCT005 BKN007 YLO1

TAF TAF EGVO
Valide du 26 à 12h jusqu'au 27 à 00h UTC


261058Z 2612/2624 22012KT 9999 BKN010
PROB30
TEMPO 2612/2613 SCT030
TEMPO 2613/2616 4000 -RA BKN005
BECMG 2616/2619 SCT030
PROB30
TEMPO 2620/2624 SCT020
Pas de NOTAMs connus pour ce terrain.



MET'MAP, la Météo Aéronautique d'un coup d'oeil ! - Copyright ORBIFLY Décembre 2007 - Disclaimer

ORBIFLY MET'MAP TEAM :

Programmation & Développement : Alexandra Zaïnal
Conception & Développement : Baudouin d'Aumeries
Co-Programmation & Développement : Marc-Olivier Méhu
Soutien technique & logistique : Manuel Goepfert

Contact : metmap@orbifly.com




SOURCES & CREDITS :

   NOAA